sensor_id;sensor_type;location;lat;lon;timestamp;temperature;humidity
19654;DHT22;9975;48.046;7.804;2024-03-02T07:45:47;4.10;99.90
19654;DHT22;9975;48.046;7.804;2024-03-02T07:48:13;4.30;99.90
19654;DHT22;9975;48.046;7.804;2024-03-02T07:50:38;4.50;99.90
19654;DHT22;9975;48.046;7.804;2024-03-02T07:53:07;5.50;99.90
19654;DHT22;9975;48.046;7.804;2024-03-02T07:55:33;5.20;99.90
19654;DHT22;9975;48.046;7.804;2024-03-02T07:58:01;5.10;99.90
19654;DHT22;9975;48.046;7.804;2024-03-02T08:00:27;5.30;99.90
19654;DHT22;9975;48.046;7.804;2024-03-02T08:02:55;5.60;99.90
19654;DHT22;9975;48.046;7.804;2024-03-02T08:05:21;5.70;99.90
19654;DHT22;9975;48.046;7.804;2024-03-02T08:07:47;5.90;99.90
19654;DHT22;9975;48.046;7.804;2024-03-02T08:10:13;6.20;99.90
19654;DHT22;9975;48.046;7.804;2024-03-02T08:12:39;6.20;99.90
19654;DHT22;9975;48.046;7.804;2024-03-02T08:15:05;6.40;99.90
19654;DHT22;9975;48.046;7.804;2024-03-02T08:17:31;6.60;99.90
19654;DHT22;9975;48.046;7.804;2024-03-02T08:19:57;6.60;99.90
19654;DHT22;9975;48.046;7.804;2024-03-02T08:22:24;6.90;99.90
19654;DHT22;9975;48.046;7.804;2024-03-02T08:24:54;7.00;99.90
19654;DHT22;9975;48.046;7.804;2024-03-02T08:27:20;7.20;99.90
19654;DHT22;9975;48.046;7.804;2024-03-02T08:32:11;7.60;99.90
19654;DHT22;9975;48.046;7.804;2024-03-02T08:34:37;7.90;99.90
19654;DHT22;9975;48.046;7.804;2024-03-02T08:39:28;8.20;99.90
19654;DHT22;9975;48.046;7.804;2024-03-02T08:41:54;8.40;99.90
19654;DHT22;9975;48.046;7.804;2024-03-02T08:46:46;8.80;99.90
19654;DHT22;9975;48.046;7.804;2024-03-02T08:49:12;9.10;99.90
19654;DHT22;9975;48.046;7.804;2024-03-02T08:51:38;9.30;99.90
19654;DHT22;9975;48.046;7.804;2024-03-02T08:54:04;9.30;99.90
19654;DHT22;9975;48.046;7.804;2024-03-02T08:56:30;9.60;99.90
19654;DHT22;9975;48.046;7.804;2024-03-02T08:58:56;9.70;99.90
19654;DHT22;9975;48.046;7.804;2024-03-02T09:01:22;9.80;99.90
19654;DHT22;9975;48.046;7.804;2024-03-02T09:03:48;9.90;99.90
19654;DHT22;9975;48.046;7.804;2024-03-02T09:06:17;10.20;99.90
19654;DHT22;9975;48.046;7.804;2024-03-02T09:08:43;10.40;99.90
19654;DHT22;9975;48.046;7.804;2024-03-02T09:11:10;10.70;99.90
19654;DHT22;9975;48.046;7.804;2024-03-02T09:13:36;10.90;99.90
19654;DHT22;9975;48.046;7.804;2024-03-02T09:16:03;10.90;99.90
19654;DHT22;9975;48.046;7.804;2024-03-02T09:18:31;11.20;99.90
19654;DHT22;9975;48.046;7.804;2024-03-02T09:20:56;11.30;99.90
19654;DHT22;9975;48.046;7.804;2024-03-02T09:23:22;11.60;99.70
19654;DHT22;9975;48.046;7.804;2024-03-02T09:25:49;11.70;98.60
19654;DHT22;9975;48.046;7.804;2024-03-02T09:28:18;12.00;98.90
19654;DHT22;9975;48.046;7.804;2024-03-02T09:30:43;12.30;97.10
19654;DHT22;9975;48.046;7.804;2024-03-02T09:33:09;12.40;95.00
19654;DHT22;9975;48.046;7.804;2024-03-02T09:35:35;12.60;96.00
19654;DHT22;9975;48.046;7.804;2024-03-02T09:38:00;13.00;95.30
19654;DHT22;9975;48.046;7.804;2024-03-02T09:40:26;13.00;91.60
19654;DHT22;9975;48.046;7.804;2024-03-02T09:42:51;13.20;92.40
19654;DHT22;9975;48.046;7.804;2024-03-02T09:45:23;13.40;91.00
19654;DHT22;9975;48.046;7.804;2024-03-02T09:47:49;13.50;90.00
19654;DHT22;9975;48.046;7.804;2024-03-02T09:50:15;13.70;87.80
19654;DHT22;9975;48.046;7.804;2024-03-02T09:52:42;14.10;85.40
19654;DHT22;9975;48.046;7.804;2024-03-02T10:09:46;15.40;53.30
19654;DHT22;9975;48.046;7.804;2024-03-02T10:12:14;15.70;50.40
19654;DHT22;9975;48.046;7.804;2024-03-02T10:14:40;15.70;50.40
19654;DHT22;9975;48.046;7.804;2024-03-02T10:17:08;15.90;46.10
19654;DHT22;9975;48.046;7.804;2024-03-02T10:19:34;15.90;44.80
19654;DHT22;9975;48.046;7.804;2024-03-02T10:22:08;16.20;43.00
19654;DHT22;9975;48.046;7.804;2024-03-02T10:24:39;16.50;41.00
19654;DHT22;9975;48.046;7.804;2024-03-02T10:27:26;16.60;38.60
19654;DHT22;9975;48.046;7.804;2024-03-02T10:29:52;16.90;37.50
19654;DHT22;9975;48.046;7.804;2024-03-02T10:32:22;16.70;36.30
19654;DHT22;9975;48.046;7.804;2024-03-02T10:34:48;16.60;37.00
19654;DHT22;9975;48.046;7.804;2024-03-02T10:39:40;17.00;36.10
19654;DHT22;9975;48.046;7.804;2024-03-02T10:42:06;17.10;35.10
19654;DHT22;9975;48.046;7.804;2024-03-02T10:44:32;17.00;35.70
19654;DHT22;9975;48.046;7.804;2024-03-02T10:47:03;17.00;36.20
19654;DHT22;9975;48.046;7.804;2024-03-02T10:49:30;17.10;32.70
19654;DHT22;9975;48.046;7.804;2024-03-02T10:51:57;17.10;32.10
19654;DHT22;9975;48.046;7.804;2024-03-02T10:56:53;17.20;32.20
19654;DHT22;9975;48.046;7.804;2024-03-02T11:04:29;16.90;30.10
19654;DHT22;9975;48.046;7.804;2024-03-02T11:07:02;17.40;31.10
19654;DHT22;9975;48.046;7.804;2024-03-02T11:09:30;17.70;31.00
19654;DHT22;9975;48.046;7.804;2024-03-02T11:12:22;18.10;29.90
19654;DHT22;9975;48.046;7.804;2024-03-02T11:14:51;18.30;28.30
19654;DHT22;9975;48.046;7.804;2024-03-02T11:19:46;18.50;27.20
19654;DHT22;9975;48.046;7.804;2024-03-02T11:22:13;18.60;27.70
19654;DHT22;9975;48.046;7.804;2024-03-02T11:24:51;19.10;26.70
19654;DHT22;9975;48.046;7.804;2024-03-02T11:27:59;18.80;26.30
19654;DHT22;9975;48.046;7.804;2024-03-02T11:33:03;19.20;24.20
19654;DHT22;9975;48.046;7.804;2024-03-02T11:35:35;19.50;23.70
19654;DHT22;9975;48.046;7.804;2024-03-02T11:38:01;19.60;23.40
19654;DHT22;9975;48.046;7.804;2024-03-02T11:40:29;19.70;22.90
19654;DHT22;9975;48.046;7.804;2024-03-02T11:42:55;19.70;23.90
19654;DHT22;9975;48.046;7.804;2024-03-02T11:45:28;20.20;23.50
19654;DHT22;9975;48.046;7.804;2024-03-02T11:47:59;20.00;21.40
19654;DHT22;9975;48.046;7.804;2024-03-02T11:53:05;20.20;22.50
19654;DHT22;9975;48.046;7.804;2024-03-02T11:55:38;20.10;20.30
19654;DHT22;9975;48.046;7.804;2024-03-02T11:58:09;19.90;20.40
19654;DHT22;9975;48.046;7.804;2024-03-02T12:00:35;20.80;18.90
19654;DHT22;9975;48.046;7.804;2024-03-02T12:03:08;20.90;19.30
19654;DHT22;9975;48.046;7.804;2024-03-02T12:05:35;20.70;18.60
19654;DHT22;9975;48.046;7.804;2024-03-02T12:08:06;20.80;17.70
19654;DHT22;9975;48.046;7.804;2024-03-02T12:10:33;20.70;18.60
19654;DHT22;9975;48.046;7.804;2024-03-02T12:13:01;20.10;18.20
19654;DHT22;9975;48.046;7.804;2024-03-02T12:15:28;20.10;18.40
19654;DHT22;9975;48.046;7.804;2024-03-02T12:17:57;19.50;18.20
19654;DHT22;9975;48.046;7.804;2024-03-02T12:20:25;19.60;19.00
19654;DHT22;9975;48.046;7.804;2024-03-02T12:22:54;19.80;18.70
19654;DHT22;9975;48.046;7.804;2024-03-02T12:25:21;19.90;18.80
19654;DHT22;9975;48.046;7.804;2024-03-02T12:27:50;19.90;19.20
19654;DHT22;9975;48.046;7.804;2024-03-02T12:30:17;20.10;18.30
19654;DHT22;9975;48.046;7.804;2024-03-02T12:32:44;20.10;18.40
19654;DHT22;9975;48.046;7.804;2024-03-02T12:35:10;20.10;19.20
19654;DHT22;9975;48.046;7.804;2024-03-02T12:37:44;20.00;19.30
19654;DHT22;9975;48.046;7.804;2024-03-02T12:40:11;20.20;18.90
19654;DHT22;9975;48.046;7.804;2024-03-02T12:42:38;20.60;18.00
19654;DHT22;9975;48.046;7.804;2024-03-02T12:45:04;20.60;18.60
19654;DHT22;9975;48.046;7.804;2024-03-02T12:47:30;20.70;17.70
19654;DHT22;9975;48.046;7.804;2024-03-02T12:49:56;21.30;17.10
19654;DHT22;9975;48.046;7.804;2024-03-02T12:52:22;21.70;15.70
19654;DHT22;9975;48.046;7.804;2024-03-02T12:54:48;21.70;16.50
19654;DHT22;9975;48.046;7.804;2024-03-02T12:57:17;21.80;16.10
19654;DHT22;9975;48.046;7.804;2024-03-02T12:59:45;20.70;15.70
19654;DHT22;9975;48.046;7.804;2024-03-02T13:02:17;20.70;16.40
19654;DHT22;9975;48.046;7.804;2024-03-02T13:04:44;20.90;17.00
19654;DHT22;9975;48.046;7.804;2024-03-02T13:07:13;21.30;16.10
19654;DHT22;9975;48.046;7.804;2024-03-02T13:09:39;21.20;17.00
19654;DHT22;9975;48.046;7.804;2024-03-02T13:12:05;21.20;15.70
19654;DHT22;9975;48.046;7.804;2024-03-02T13:14:35;21.90;15.80
19654;DHT22;9975;48.046;7.804;2024-03-02T13:17:01;21.90;16.20
19654;DHT22;9975;48.046;7.804;2024-03-02T13:19:29;22.10;15.90
19654;DHT22;9975;48.046;7.804;2024-03-02T13:21:56;20.90;15.00
19654;DHT22;9975;48.046;7.804;2024-03-02T13:24:30;20.90;15.50
19654;DHT22;9975;48.046;7.804;2024-03-02T13:26:56;21.10;15.10
19654;DHT22;9975;48.046;7.804;2024-03-02T13:29:23;20.90;14.50
19654;DHT22;9975;48.046;7.804;2024-03-02T13:31:49;20.90;14.70
19654;DHT22;9975;48.046;7.804;2024-03-02T13:34:15;21.30;13.20
19654;DHT22;9975;48.046;7.804;2024-03-02T13:36:41;21.50;14.30
19654;DHT22;9975;48.046;7.804;2024-03-02T13:39:06;21.40;14.60
19654;DHT22;9975;48.046;7.804;2024-03-02T13:41:34;20.80;15.30
19654;DHT22;9975;48.046;7.804;2024-03-02T13:44:00;20.40;17.10
19654;DHT22;9975;48.046;7.804;2024-03-02T13:46:27;20.20;17.30
19654;DHT22;9975;48.046;7.804;2024-03-02T13:48:53;20.00;17.00
19654;DHT22;9975;48.046;7.804;2024-03-02T13:51:24;20.00;17.50
19654;DHT22;9975;48.046;7.804;2024-03-02T13:53:51;19.60;17.10
19654;DHT22;9975;48.046;7.804;2024-03-02T13:56:16;19.10;17.30
19654;DHT22;9975;48.046;7.804;2024-03-02T13:58:42;18.40;17.60
19654;DHT22;9975;48.046;7.804;2024-03-02T14:01:09;19.10;18.90
19654;DHT22;9975;48.046;7.804;2024-03-02T14:06:00;18.80;17.40
19654;DHT22;9975;48.046;7.804;2024-03-02T14:08:26;18.70;17.70
19654;DHT22;9975;48.046;7.804;2024-03-02T14:13:19;18.50;17.60
19654;DHT22;9975;48.046;7.804;2024-03-02T14:15:45;18.10;18.50
19654;DHT22;9975;48.046;7.804;2024-03-02T14:18:11;18.20;18.60
19654;DHT22;9975;48.046;7.804;2024-03-02T14:20:36;18.20;18.20
19654;DHT22;9975;48.046;7.804;2024-03-02T14:23:03;17.90;19.00
19654;DHT22;9975;48.046;7.804;2024-03-02T14:25:30;17.70;18.80
19654;DHT22;9975;48.046;7.804;2024-03-02T14:27:59;17.70;19.30
19654;DHT22;9975;48.046;7.804;2024-03-02T14:30:25;17.70;19.50
19654;DHT22;9975;48.046;7.804;2024-03-02T14:35:17;17.60;19.90
19654;DHT22;9975;48.046;7.804;2024-03-02T14:37:42;17.60;20.30
19654;DHT22;9975;48.046;7.804;2024-03-02T14:40:08;17.50;19.80
19654;DHT22;9975;48.046;7.804;2024-03-02T14:42:35;17.30;20.00
19654;DHT22;9975;48.046;7.804;2024-03-02T14:45:02;17.20;19.60
19654;DHT22;9975;48.046;7.804;2024-03-02T14:47:31;17.30;19.80
19654;DHT22;9975;48.046;7.804;2024-03-02T14:52:23;17.40;20.00
19654;DHT22;9975;48.046;7.804;2024-03-02T14:54:49;17.30;21.10
19654;DHT22;9975;48.046;7.804;2024-03-02T15:02:08;16.90;21.30
19654;DHT22;9975;48.046;7.804;2024-03-02T15:06:59;17.00;21.40
19654;DHT22;9975;48.046;7.804;2024-03-02T15:09:25;17.00;21.80
19654;DHT22;9975;48.046;7.804;2024-03-02T15:11:51;16.90;24.20
19654;DHT22;9975;48.046;7.804;2024-03-02T15:14:16;17.00;26.00
19654;DHT22;9975;48.046;7.804;2024-03-02T15:19:08;17.10;24.80
19654;DHT22;9975;48.046;7.804;2024-03-02T15:21:33;17.00;23.20
19654;DHT22;9975;48.046;7.804;2024-03-02T15:26:25;17.00;22.90
19654;DHT22;9975;48.046;7.804;2024-03-02T15:31:19;17.10;22.60
19654;DHT22;9975;48.046;7.804;2024-03-02T15:33:44;17.00;22.90
19654;DHT22;9975;48.046;7.804;2024-03-02T15:36:10;17.20;23.40
19654;DHT22;9975;48.046;7.804;2024-03-02T15:41:03;17.60;23.10
19654;DHT22;9975;48.046;7.804;2024-03-02T15:45:56;21.50;24.60
19654;DHT22;9975;48.046;7.804;2024-03-02T15:48:33;17.90;22.40
19654;DHT22;9975;48.046;7.804;2024-03-02T15:50:59;17.70;21.30
19654;DHT22;9975;48.046;7.804;2024-03-02T15:53:29;17.50;22.60
19654;DHT22;9975;48.046;7.804;2024-03-02T15:55:55;17.60;20.90
19654;DHT22;9975;48.046;7.804;2024-03-02T15:58:20;17.70;21.30
19654;DHT22;9975;48.046;7.804;2024-03-02T16:00:46;17.70;21.50
19654;DHT22;9975;48.046;7.804;2024-03-02T16:03:13;17.60;21.60
19654;DHT22;9975;48.046;7.804;2024-03-02T16:05:43;17.50;21.70
19654;DHT22;9975;48.046;7.804;2024-03-02T16:08:09;17.50;22.00
19654;DHT22;9975;48.046;7.804;2024-03-02T16:10:37;17.40;21.10
19654;DHT22;9975;48.046;7.804;2024-03-02T16:13:03;17.10;20.90
19654;DHT22;9975;48.046;7.804;2024-03-02T16:15:28;17.10;20.50
19654;DHT22;9975;48.046;7.804;2024-03-02T16:20:20;17.00;22.20
19654;DHT22;9975;48.046;7.804;2024-03-02T16:23:12;17.00;24.20
19654;DHT22;9975;48.046;7.804;2024-03-02T16:25:41;16.90;22.00
19654;DHT22;9975;48.046;7.804;2024-03-02T16:28:07;17.00;22.70
19654;DHT22;9975;48.046;7.804;2024-03-02T16:32:59;16.60;22.60
19654;DHT22;9975;48.046;7.804;2024-03-02T16:35:25;16.30;23.30
19654;DHT22;9975;48.046;7.804;2024-03-02T16:40:17;16.10;23.60
19654;DHT22;9975;48.046;7.804;2024-03-02T16:42:43;16.10;24.40
19654;DHT22;9975;48.046;7.804;2024-03-02T16:45:09;16.20;24.70
19654;DHT22;9975;48.046;7.804;2024-03-02T16:54:54;16.10;25.60
19654;DHT22;9975;48.046;7.804;2024-03-02T16:57:20;15.90;25.50
19654;DHT22;9975;48.046;7.804;2024-03-02T16:59:46;16.00;25.60
19654;DHT22;9975;48.046;7.804;2024-03-02T17:02:12;15.90;25.50
19654;DHT22;9975;48.046;7.804;2024-03-02T17:04:39;15.90;25.80
19654;DHT22;9975;48.046;7.804;2024-03-02T17:07:05;15.80;25.90
19654;DHT22;9975;48.046;7.804;2024-03-02T17:09:30;15.80;26.30
19654;DHT22;9975;48.046;7.804;2024-03-02T17:11:56;15.30;26.90
19654;DHT22;9975;48.046;7.804;2024-03-02T17:14:22;15.20;27.70
19654;DHT22;9975;48.046;7.804;2024-03-02T17:16:47;15.00;28.10
19654;DHT22;9975;48.046;7.804;2024-03-02T17:21:41;15.00;28.10
19654;DHT22;9975;48.046;7.804;2024-03-02T17:24:06;14.60;27.50
19654;DHT22;9975;48.046;7.804;2024-03-02T17:26:32;14.40;27.80
19654;DHT22;9975;48.046;7.804;2024-03-02T17:28:58;14.40;28.90
19654;DHT22;9975;48.046;7.804;2024-03-02T17:31:23;14.20;28.80
19654;DHT22;9975;48.046;7.804;2024-03-02T17:33:49;14.10;29.30
19654;DHT22;9975;48.046;7.804;2024-03-02T17:36:15;13.90;29.80
19654;DHT22;9975;48.046;7.804;2024-03-02T17:38:41;14.00;30.20
19654;DHT22;9975;48.046;7.804;2024-03-02T18:25:00;12.10;33.50
19654;DHT22;9975;48.046;7.804;2024-03-02T18:27:26;12.00;34.40
19654;DHT22;9975;48.046;7.804;2024-03-02T18:29:52;12.00;35.20
19654;DHT22;9975;48.046;7.804;2024-03-02T18:34:43;11.70;36.50
19654;DHT22;9975;48.046;7.804;2024-03-02T18:37:09;11.60;36.00
19654;DHT22;9975;48.046;7.804;2024-03-02T18:42:01;11.80;36.20
19654;DHT22;9975;48.046;7.804;2024-03-02T18:44:27;11.70;35.80
19654;DHT22;9975;48.046;7.804;2024-03-02T18:46:53;11.70;35.50
19654;DHT22;9975;48.046;7.804;2024-03-02T18:49:18;11.70;35.20
19654;DHT22;9975;48.046;7.804;2024-03-02T18:54:11;12.00;35.40
19654;DHT22;9975;48.046;7.804;2024-03-02T18:56:37;11.90;35.60
19654;DHT22;9975;48.046;7.804;2024-03-02T19:01:28;11.90;36.00
19654;DHT22;9975;48.046;7.804;2024-03-02T19:03:54;12.00;36.10
19654;DHT22;9975;48.046;7.804;2024-03-02T19:06:20;12.00;36.30
19654;DHT22;9975;48.046;7.804;2024-03-02T19:08:45;12.00;36.30
19654;DHT22;9975;48.046;7.804;2024-03-02T19:11:15;12.10;36.50
19654;DHT22;9975;48.046;7.804;2024-03-02T19:13:41;12.10;37.10
19654;DHT22;9975;48.046;7.804;2024-03-02T19:16:14;11.90;38.10
19654;DHT22;9975;48.046;7.804;2024-03-02T19:18:41;11.70;38.80
19654;DHT22;9975;48.046;7.804;2024-03-02T19:21:07;11.60;39.00
19654;DHT22;9975;48.046;7.804;2024-03-02T19:23:33;11.60;39.40
19654;DHT22;9975;48.046;7.804;2024-03-02T19:25:58;11.50;40.20
19654;DHT22;9975;48.046;7.804;2024-03-02T19:28:24;11.40;40.90
